Time;durP1;ratioP1;P1;durP2;ratioP2;P2;SDS_P1;SDS_P2;PMS_P1;PMS_P2;Temp;Humidity;BMP_temperature;BMP_pressure;BME280_temperature;BME280_humidity;BME280_pressure;Samples;Min_cycle;Max_cycle;Signal;HPM_P1;HPM_P2
2022/11/20 00:01:14;;;;;;;53.60;30.47;;;;;;;12.20;93.27;101177.69;5042185;28;20052;-63
2022/11/20 00:03:40;;;;;;;35.70;24.97;;;;;;;12.16;93.17;101170.13;5042178;28;20051;-63
2022/11/20 00:06:10;;;;;;;36.30;25.00;;;;;;;12.26;93.24;101176.59;5037507;28;20246;-63
2022/11/20 00:08:37;;;;;;;32.50;27.02;;;;;;;12.19;93.43;101167.63;5037789;28;20096;-63
2022/11/20 00:11:06;;;;;;;39.60;27.03;;;;;;;12.26;93.30;101165.38;5045013;28;20399;-63
2022/11/20 00:13:42;;;;;;;34.20;22.87;;;;;;;12.24;93.31;101177.97;5051248;28;20076;-63
2022/11/20 00:16:11;;;;;;;31.43;22.70;;;;;;;12.22;93.18;101180.22;5046153;28;20049;-63
2022/11/20 00:18:38;;;;;;;49.67;31.13;;;;;;;12.15;93.17;101179.66;5039297;28;20053;-63
2022/11/20 00:21:07;;;;;;;40.23;27.67;;;;;;;12.14;93.30;101189.19;5048879;28;20076;-63
2022/11/20 00:23:34;;;;;;;29.88;22.95;;;;;;;12.06;93.45;101194.16;5041489;28;20060;-63
2022/11/20 00:26:04;;;;;;;37.73;25.33;;;;;;;12.03;93.46;101193.88;5034252;28;20057;-63
2022/11/20 00:28:31;;;;;;;26.63;20.42;;;;;;;12.02;93.79;101193.03;5040253;28;20057;-63
2022/11/20 00:31:06;;;;;;;29.37;21.07;;;;;;;11.72;93.69;101136.94;5033055;28;20045;-62
2022/11/20 00:33:33;;;;;;;21.83;19.07;;;;;;;11.92;94.09;101162.22;5041411;28;20492;-63
2022/11/20 00:36:21;;;;;;;36.73;27.10;;;;;;;11.92;93.92;101165.00;5040606;28;20053;-63
2022/11/20 00:38:56;;;;;;;31.70;22.00;;;;;;;11.94;94.25;101174.00;5051141;28;20048;-63
2022/11/20 00:41:25;;;;;;;36.00;26.33;;;;;;;11.97;94.32;101173.44;5051457;28;20487;-63
2022/11/20 00:43:53;;;;;;;19.80;17.77;;;;;;;11.96;94.46;101171.75;5044500;28;20040;-63
2022/11/20 00:46:23;;;;;;;21.60;19.50;;;;;;;11.95;94.45;101163.63;5038800;28;20044;-63
2022/11/20 00:48:50;;;;;;;;;;;;;;;11.72;94.76;101176.94;5037682;28;20052;-63
2022/11/20 00:51:21;;;;;;;19.53;17.73;;;;;;;11.88;94.88;101175.09;5047579;28;19920;-62
2022/11/20 00:53:47;;;;;;;;;;;;;;;11.69;95.04;101191.50;5037635;28;20068;-63
2022/11/20 00:56:17;;;;;;;18.40;16.47;;;;;;;11.92;95.18;101180.97;5042938;28;20399;-63
2022/11/20 00:58:45;;;;;;;31.40;23.53;;;;;;;11.99;95.11;101188.00;5040076;28;20511;-64
2022/11/20 01:01:15;;;;;;;32.73;24.87;;;;;;;12.05;94.88;101192.50;5044692;28;20048;-63
2022/11/20 01:03:43;;;;;;;;;;;;;;;11.86;95.21;101194.09;5038290;28;20052;-64
2022/11/20 01:06:11;;;;;;;33.63;24.60;;;;;;;12.12;95.07;101183.00;5041371;28;19927;-63
2022/11/20 01:08:38;;;;;;;34.80;30.73;;;;;;;12.14;94.93;101173.22;5037666;28;20046;-64
2022/11/20 01:11:20;;;;;;;36.33;27.37;;;;;;;12.27;94.56;101166.22;5035321;28;20407;-63
2022/11/20 01:13:49;;;;;;;40.77;27.90;;;;;;;12.33;94.64;101170.72;5034782;28;20057;-64
2022/11/20 01:16:37;;;;;;;40.53;28.70;;;;;;;12.32;94.62;101169.06;5045596;28;20045;-64
2022/11/20 01:19:07;;;;;;;41.10;27.47;;;;;;;12.39;94.70;101174.38;5034991;28;20111;-64
2022/11/20 01:21:37;;;;;;;38.17;25.87;;;;;;;12.48;94.60;101167.13;5040826;28;20069;-62
2022/11/20 01:24:06;;;;;;;43.37;27.47;;;;;;;12.52;94.77;101157.88;5038118;28;20048;-63
2022/11/20 01:26:35;;;;;;;29.77;21.02;;;;;;;12.41;94.71;101124.50;5042185;28;20512;-63
2022/11/20 01:29:03;;;;;;;32.73;23.27;;;;;;;12.61;94.49;101143.28;5047277;28;20052;-64
2022/11/20 01:31:32;;;;;;;32.13;25.57;;;;;;;12.61;94.58;101146.94;5033007;28;20049;-64
2022/11/20 01:34:14;;;;;;;31.20;21.13;;;;;;;12.62;94.43;101150.59;5031008;28;20050;-64
2022/11/20 01:36:43;;;;;;;24.90;18.05;;;;;;;12.69;94.62;101148.38;5041116;28;20466;-63
2022/11/20 01:39:24;;;;;;;23.70;18.07;;;;;;;12.60;94.27;101147.22;5042506;28;20506;-63
2022/11/20 01:44:48;;;;;;;25.50;20.97;;;;;;;12.64;94.37;101137.13;5052661;28;20052;-63
2022/11/20 01:47:21;;;;;;;21.33;17.97;;;;;;;12.64;94.37;101132.38;5044930;28;20061;-63
2022/11/20 01:50:26;;;;;;;27.17;20.58;;;;;;;12.62;94.30;101150.59;5045032;28;20041;-63
2022/11/20 01:52:59;;;;;;;25.53;19.90;;;;;;;12.59;94.58;101135.19;5044959;28;20408;-63
2022/11/20 01:55:38;;;;;;;25.23;19.50;;;;;;;12.69;94.55;101146.41;5039606;28;20056;-64
2022/11/20 01:58:06;;;;;;;28.90;19.90;;;;;;;12.64;94.66;101139.94;5045706;28;20052;-64
2022/11/20 02:00:33;;;;;;;26.13;19.27;;;;;;;12.64;94.54;101131.53;5041305;28;20053;-63
2022/11/20 02:03:05;;;;;;;37.13;24.23;;;;;;;12.53;94.56;101102.69;5038283;28;20045;-64
2022/11/20 02:05:35;;;;;;;32.27;21.70;;;;;;;12.71;94.82;101138.53;5039898;28;20052;-64
2022/11/20 02:08:04;;;;;;;42.70;30.17;;;;;;;12.67;94.52;101128.16;5038109;28;20092;-64
2022/11/20 02:10:33;;;;;;;45.00;28.63;;;;;;;12.66;94.39;101132.09;5050373;28;20045;-63
2022/11/20 02:15:46;;;;;;;42.65;26.52;;;;;;;12.65;94.58;101125.66;5053757;28;20045;-63
2022/11/20 02:18:15;;;;;;;30.83;24.03;;;;;;;12.65;94.48;101110.78;5051406;28;20049;-63
2022/11/20 02:20:45;;;;;;;20.37;17.60;;;;;;;12.62;94.64;101117.81;5038773;28;20053;-63
2022/11/20 02:23:21;;;;;;;22.85;17.42;;;;;;;12.64;94.64;101107.16;5048017;28;20045;-63
2022/11/20 02:25:49;;;;;;;19.88;14.27;;;;;;;12.68;94.99;101115.84;5050257;28;20056;-63
2022/11/20 02:28:18;;;;;;;16.00;14.25;;;;;;;12.76;94.95;101123.69;5037817;28;20049;-63
2022/11/20 02:30:44;;;;;;;13.50;12.30;;;;;;;12.75;94.99;101124.78;5050349;28;20048;-64
2022/11/20 02:33:12;;;;;;;16.45;14.73;;;;;;;12.77;95.22;101119.75;5053060;28;20050;-63
2022/11/20 02:35:42;;;;;;;21.50;15.38;;;;;;;12.81;95.03;101115.25;5050558;28;20049;-65
2022/11/20 02:38:09;;;;;;;19.17;17.50;;;;;;;12.77;95.27;101111.34;5056950;28;20041;-62
2022/11/20 02:40:36;;;;;;;16.80;15.00;;;;;;;12.85;95.25;101110.78;5048761;28;20051;-63
2022/11/20 02:43:03;;;;;;;17.37;13.40;;;;;;;12.86;95.30;101118.09;5046704;28;20052;-63
2022/11/20 02:45:30;;;;;;;15.40;13.67;;;;;;;12.84;95.41;101103.50;5046008;28;20412;-62
2022/11/20 02:47:56;;;;;;;17.87;15.07;;;;;;;12.88;95.26;101112.19;5036678;28;20048;-63
2022/11/20 02:50:23;;;;;;;15.23;12.90;;;;;;;12.84;95.37;101108.25;5044646;28;20152;-62
2022/11/20 02:52:50;;;;;;;14.60;13.10;;;;;;;12.89;95.37;101114.72;5047245;28;20049;-63
2022/11/20 02:55:17;;;;;;;15.10;13.27;;;;;;;12.92;95.38;101119.75;5053974;28;20060;-63
2022/11/20 02:57:44;;;;;;;15.30;13.80;;;;;;;12.91;95.55;101123.66;5043604;28;20064;-62
2022/11/20 03:00:11;;;;;;;15.23;13.70;;;;;;;12.89;95.39;101113.84;5034375;28;20063;-63
2022/11/20 03:02:38;;;;;;;16.47;14.27;;;;;;;12.91;95.35;101111.63;5046833;28;20476;-62
2022/11/20 03:05:05;;;;;;;16.08;14.25;;;;;;;13.00;95.65;101121.97;5040579;28;20511;-63
2022/11/20 03:07:32;;;;;;;15.10;13.53;;;;;;;13.02;95.56;101105.72;5042989;28;20125;-63
2022/11/20 03:09:59;;;;;;;14.83;13.43;;;;;;;12.90;95.40;101077.13;5045014;28;20135;-63
2022/11/20 03:12:25;;;;;;;13.27;12.18;;;;;;;13.03;95.47;101096.19;5041623;28;20048;-62
2022/11/20 03:14:52;;;;;;;12.60;11.50;;;;;;;12.96;95.49;101104.03;5040422;28;20049;-62
2022/11/20 03:17:19;;;;;;;12.67;11.57;;;;;;;12.99;95.53;101106.28;5050006;28;20468;-63
2022/11/20 03:19:46;;;;;;;13.88;12.68;;;;;;;12.92;95.69;101086.13;5032249;28;20045;-64
2022/11/20 03:22:13;;;;;;;13.55;12.18;;;;;;;12.96;95.69;101101.25;5042520;28;20053;-63
2022/11/20 03:24:39;;;;;;;12.98;11.85;;;;;;;12.97;95.74;101096.47;5049887;28;20634;-63
2022/11/20 03:27:06;;;;;;;12.68;11.55;;;;;;;12.96;95.75;101090.03;5039975;28;20057;-63
2022/11/20 03:29:35;;;;;;;12.90;11.70;;;;;;;12.96;95.70;101080.78;5033958;28;20056;-63
2022/11/20 03:32:02;;;;;;;11.82;10.85;;;;;;;12.98;95.91;101103.75;5040481;28;20046;-63
2022/11/20 03:34:28;;;;;;;14.20;12.90;;;;;;;12.99;96.01;101089.47;5040427;28;20419;-63
2022/11/20 03:36:55;;;;;;;11.88;10.90;;;;;;;12.85;95.82;101056.69;5052682;28;20068;-63
2022/11/20 03:39:22;;;;;;;13.02;12.05;;;;;;;13.00;95.99;101074.31;5039337;28;20059;-63
2022/11/20 03:41:49;;;;;;;12.23;11.32;;;;;;;13.02;96.06;101082.44;5037857;28;20049;-63
2022/11/20 03:44:16;;;;;;;13.77;12.57;;;;;;;13.04;96.14;101081.03;5041705;28;20055;-63
2022/11/20 03:46:43;;;;;;;12.45;11.55;;;;;;;13.01;95.89;101070.38;5046494;28;20048;-63
2022/11/20 03:49:10;;;;;;;13.27;12.10;;;;;;;13.05;96.11;101082.69;5044807;28;20065;-63
2022/11/20 03:51:37;;;;;;;13.10;11.95;;;;;;;13.09;96.17;101082.13;5044296;28;20447;-63
2022/11/20 03:54:07;;;;;;;13.70;12.60;;;;;;;13.09;96.15;101076.53;5037487;28;20045;-63
2022/11/20 03:56:37;;;;;;;14.00;12.60;;;;;;;13.09;96.18;101068.13;5042119;28;20046;-62
2022/11/20 03:59:04;;;;;;;12.18;11.18;;;;;;;13.08;96.20;101074.84;5045875;28;20107;-62
2022/11/20 04:01:34;;;;;;;13.45;12.25;;;;;;;13.13;96.16;101077.63;5037189;28;20072;-63
2022/11/20 04:04:01;;;;;;;;;;;;;;;12.89;96.68;101077.41;5041749;28;20060;-63
2022/11/20 04:06:36;;;;;;;13.38;12.48;;;;;;;13.03;96.59;101061.69;5035241;28;19921;-63
2022/11/20 04:09:03;;;;;;;11.80;10.95;;;;;;;13.01;96.52;101059.16;5039970;28;20492;-63
2022/11/20 04:11:35;;;;;;;12.48;11.57;;;;;;;13.08;96.61;101061.66;5042051;28;20056;-62
2022/11/20 04:14:05;;;;;;;13.38;12.38;;;;;;;13.09;96.55;101056.91;5032042;28;20519;-62
2022/11/20 04:16:33;;;;;;;;;;;;;;;12.83;96.79;101058.94;5051838;28;20044;-63
2022/11/20 04:19:02;;;;;;;13.40;12.15;;;;;;;13.01;97.01;101047.94;5041182;28;19921;-62
2022/11/20 04:21:29;;;;;;;12.50;11.70;;;;;;;13.07;96.86;101045.97;5042603;28;20060;-64
2022/11/20 04:23:56;;;;;;;12.60;11.68;;;;;;;13.09;96.71;101054.94;5049213;28;20049;-64
2022/11/20 04:26:25;;;;;;;14.20;13.20;;;;;;;13.11;96.85;101060.28;5037129;28;20045;-63
2022/11/20 04:28:53;;;;;;;13.38;12.38;;;;;;;13.09;96.78;101049.31;5035524;28;20042;-64
2022/11/20 04:31:22;;;;;;;13.35;12.32;;;;;;;13.11;96.74;101049.88;5035586;28;20044;-64
2022/11/20 04:33:49;;;;;;;13.23;12.13;;;;;;;13.07;96.88;101051.59;5035005;28;20045;-63
2022/11/20 04:36:22;;;;;;;13.32;12.27;;;;;;;12.95;96.75;101031.44;5039539;28;20061;-64
2022/11/20 04:38:57;;;;;;;13.18;12.18;;;;;;;13.13;96.73;101056.06;5040011;28;20061;-64
2022/11/20 04:41:30;;;;;;;12.45;11.55;;;;;;;13.16;96.98;101063.03;5038943;28;20058;-63
2022/11/20 04:44:02;;;;;;;11.57;10.87;;;;;;;13.14;96.96;101054.94;5040240;28;20049;-64
2022/11/20 04:46:31;;;;;;;16.10;15.13;;;;;;;13.20;96.94;101072.59;5033389;28;20049;-64
2022/11/20 04:48:59;;;;;;;12.43;11.50;;;;;;;13.17;97.00;101057.16;5044972;28;20078;-64
2022/11/20 04:51:25;;;;;;;13.05;12.15;;;;;;;13.23;96.93;101077.59;5041294;28;20057;-64
2022/11/20 04:53:53;;;;;;;12.90;12.00;;;;;;;13.25;96.98;101061.38;5037588;28;20049;-63
2022/11/20 04:56:20;;;;;;;12.00;11.30;;;;;;;13.23;96.96;101052.34;5032035;28;20059;-63
2022/11/20 04:58:46;;;;;;;12.85;12.02;;;;;;;13.25;96.97;101048.19;5042221;28;20049;-64
2022/11/20 05:01:23;;;;;;;12.13;11.43;;;;;;;13.20;96.81;101052.97;5051126;28;20056;-64
2022/11/20 05:03:50;;;;;;;12.68;11.77;;;;;;;13.27;97.01;101056.31;5031835;28;20041;-64
2022/11/20 05:06:19;;;;;;;13.55;12.40;;;;;;;13.28;97.09;101064.44;5030984;28;20045;-64
2022/11/20 05:08:46;;;;;;;12.85;12.05;;;;;;;13.29;97.19;101073.69;5033020;28;20052;-64
2022/11/20 05:11:16;;;;;;;12.38;11.30;;;;;;;13.30;96.90;101052.09;5039768;28;20063;-64
2022/11/20 05:13:43;;;;;;;13.27;12.00;;;;;;;13.35;97.18;101074.53;5048655;28;20045;-64
2022/11/20 05:16:16;;;;;;;12.55;11.65;;;;;;;13.37;97.10;101067.50;5039467;28;20148;-64
2022/11/20 05:18:45;;;;;;;11.95;11.25;;;;;;;13.31;97.06;101063.03;5049464;28;20052;-64
2022/11/20 05:21:13;;;;;;;11.50;10.90;;;;;;;13.37;97.12;101059.09;5042096;28;20061;-63
2022/11/20 05:23:41;;;;;;;12.23;11.32;;;;;;;13.34;97.09;101056.03;5040457;28;20041;-63
2022/11/20 05:26:13;;;;;;;11.63;10.95;;;;;;;13.33;96.99;101054.31;5033523;28;20123;-64
2022/11/20 05:28:40;;;;;;;11.18;10.48;;;;;;;13.36;97.16;101060.19;5041443;28;20045;-64
2022/11/20 05:31:12;;;;;;;11.18;10.50;;;;;;;13.37;97.15;101050.66;5045190;28;20064;-64
2022/11/20 05:33:44;;;;;;;11.52;10.85;;;;;;;13.36;97.28;101053.75;5032659;28;20046;-64
2022/11/20 05:36:14;;;;;;;10.90;10.30;;;;;;;13.33;97.40;101052.34;5040646;28;20052;-64
2022/11/20 05:38:43;;;;;;;11.38;10.77;;;;;;;13.40;97.37;101050.09;5041111;28;20067;-63
2022/11/20 05:41:11;;;;;;;11.85;10.98;;;;;;;13.43;97.43;101066.31;5046251;28;20053;-64
2022/11/20 05:43:39;;;;;;;9.95;9.45;;;;;;;13.42;97.25;101053.44;5034384;28;20049;-63
2022/11/20 05:46:08;;;;;;;10.30;9.80;;;;;;;13.40;97.19;101050.09;5044619;28;20416;-63
2022/11/20 05:48:36;;;;;;;11.50;10.60;;;;;;;13.42;97.36;101056.25;5040280;28;20057;-64
2022/11/20 05:51:06;;;;;;;10.35;9.85;;;;;;;13.42;97.26;101053.44;5041123;28;20045;-64
2022/11/20 05:53:33;;;;;;;10.80;10.30;;;;;;;13.41;97.39;101051.78;5047816;28;20049;-64
2022/11/20 05:56:10;;;;;;;10.50;9.90;;;;;;;13.39;97.20;101050.38;5034246;28;20053;-64
2022/11/20 05:58:37;;;;;;;10.10;9.60;;;;;;;13.39;97.35;101053.19;5039885;28;20049;-63
2022/11/20 06:01:13;;;;;;;10.52;10.02;;;;;;;13.43;97.24;101059.88;5042007;28;20385;-64
2022/11/20 06:03:42;;;;;;;11.27;10.68;;;;;;;13.36;97.46;101054.59;5044148;28;20053;-64
2022/11/20 06:06:09;;;;;;;11.03;10.43;;;;;;;13.47;97.61;101070.25;5030925;28;20053;-64
2022/11/20 06:08:36;;;;;;;10.80;10.20;;;;;;;13.52;97.57;101066.59;5030381;28;20305;-64
2022/11/20 06:11:04;;;;;;;11.13;10.48;;;;;;;13.60;97.42;101070.75;5038892;28;20061;-65
2022/11/20 06:13:31;;;;;;;10.85;10.25;;;;;;;13.59;97.27;101069.09;5040596;28;20045;-64
2022/11/20 06:16:01;;;;;;;10.75;10.15;;;;;;;13.66;97.40;101069.59;5037948;28;20159;-64
2022/11/20 06:18:28;;;;;;;10.88;10.27;;;;;;;13.72;97.12;101068.44;5039940;28;20054;-64
2022/11/20 06:21:01;;;;;;;11.07;10.38;;;;;;;13.72;97.14;101065.66;5034685;28;20402;-64
2022/11/20 06:23:30;;;;;;;10.45;9.85;;;;;;;13.73;97.24;101058.91;5038130;28;20048;-64
2022/11/20 06:26:00;;;;;;;11.15;10.55;;;;;;;13.70;97.23;101045.44;5042712;28;20049;-64
2022/11/20 06:28:27;;;;;;;;;;;;;;;13.44;97.71;101053.16;5040872;28;20053;-64
2022/11/20 06:30:53;;;;;;;11.75;11.05;;;;;;;13.58;97.61;101059.00;5034040;28;19928;-64
2022/11/20 06:33:20;;;;;;;11.73;11.07;;;;;;;13.64;97.40;101069.03;5039682;28;20049;-64
2022/11/20 06:35:47;;;;;;;11.35;10.85;;;;;;;13.57;97.62;101072.16;5049315;28;20045;-64
2022/11/20 06:38:14;;;;;;;11.75;11.10;;;;;;;13.63;97.56;101084.22;5034108;28;20045;-65
2022/11/20 06:40:41;;;;;;;11.68;11.07;;;;;;;13.70;97.57;101070.69;5043604;28;20049;-64
2022/11/20 06:43:11;;;;;;;11.77;11.18;;;;;;;13.72;97.47;101074.06;5043012;28;20041;-63
2022/11/20 06:45:38;;;;;;;12.10;11.40;;;;;;;13.69;97.59;101086.69;5040360;28;20500;-64
2022/11/20 06:48:05;;;;;;;11.48;10.93;;;;;;;13.57;97.66;101063.75;5037118;28;20053;-64
2022/11/20 06:50:32;;;;;;;11.48;10.88;;;;;;;13.72;97.35;101085.28;5046721;28;20055;-65
2022/11/20 06:53:03;;;;;;;11.52;10.90;;;;;;;13.71;97.58;101087.28;5044393;28;20052;-65
2022/11/20 06:55:31;;;;;;;11.35;10.75;;;;;;;13.71;97.59;101089.25;5045488;28;20045;-64
2022/11/20 06:57:58;;;;;;;11.20;10.60;;;;;;;13.53;97.77;101059.84;5035873;28;20050;-64
2022/11/20 07:00:24;;;;;;;11.60;11.00;;;;;;;13.70;97.70;101087.53;5034471;28;20041;-63
2022/11/20 07:02:51;;;;;;;11.63;11.02;;;;;;;13.75;97.89;101090.34;5042850;28;20473;-64
2022/11/20 07:05:18;;;;;;;11.45;10.85;;;;;;;13.74;97.70;101083.03;5037551;28;20057;-63
2022/11/20 07:07:45;;;;;;;11.90;11.30;;;;;;;13.79;97.88;101084.97;5034902;28;20041;-64
2022/11/20 07:10:12;;;;;;;12.48;11.77;;;;;;;13.87;98.11;101093.63;5037039;28;20049;-64
2022/11/20 07:12:39;;;;;;;11.82;11.23;;;;;;;13.93;97.89;101092.47;5050548;28;20049;-63
2022/11/20 07:15:06;;;;;;;11.48;10.98;;;;;;;13.97;97.71;101092.72;5044784;28;20091;-63
2022/11/20 07:17:33;;;;;;;12.25;11.65;;;;;;;13.97;97.73;101093.56;5045252;28;20049;-63
2022/11/20 07:20:00;;;;;;;12.10;11.50;;;;;;;13.92;97.59;101095.56;5040825;28;20080;-63
2022/11/20 07:22:26;;;;;;;11.60;10.98;;;;;;;13.91;97.51;101105.97;5042555;28;20038;-64
2022/11/20 07:24:53;;;;;;;11.38;10.77;;;;;;;13.93;97.56;101106.50;5038569;28;20049;-64
2022/11/20 07:27:20;;;;;;;11.38;10.77;;;;;;;13.90;97.41;101104.28;5042932;28;20060;-64
2022/11/20 07:29:47;;;;;;;11.60;11.00;;;;;;;13.88;97.71;101106.53;5049527;28;20052;-64
2022/11/20 07:32:13;;;;;;;11.48;10.88;;;;;;;13.89;97.67;101105.41;5070398;28;20053;-64
2022/11/20 07:34:40;;;;;;;12.68;11.98;;;;;;;13.90;97.58;101118.31;5038394;28;20048;-64
2022/11/20 07:37:07;;;;;;;12.50;11.80;;;;;;;13.81;97.69;101103.22;5031951;28;20819;-65
2022/11/20 07:39:36;;;;;;;11.90;11.30;;;;;;;13.99;97.93;101122.19;5037123;28;20518;-64
2022/11/20 07:42:03;;;;;;;12.02;11.43;;;;;;;13.96;97.60;101125.59;5036469;28;20045;-64
2022/11/20 07:44:30;;;;;;;12.00;11.40;;;;;;;13.95;97.53;101129.53;5039104;28;20042;-66
2022/11/20 07:46:57;;;;;;;12.07;11.35;;;;;;;13.95;97.77;101132.34;5046596;28;20045;-62
2022/11/20 07:49:23;;;;;;;12.48;11.88;;;;;;;13.96;97.80;101138.78;5044813;28;20075;-64
2022/11/20 07:51:51;;;;;;;12.90;12.20;;;;;;;13.97;97.64;101130.06;5040843;28;20045;-64
2022/11/20 07:54:18;;;;;;;12.65;11.95;;;;;;;13.95;97.50;101140.75;5033694;28;20054;-64
2022/11/20 07:56:45;;;;;;;20.05;19.13;;;;;;;13.95;97.83;101132.34;5038355;28;20041;-64
2022/11/20 07:59:12;;;;;;;12.43;11.82;;;;;;;13.94;97.71;101136.25;5034716;28;20419;-64
2022/11/20 08:01:40;;;;;;;18.23;17.42;;;;;;;13.94;97.80;101133.44;5039485;28;20045;-64
2022/11/20 08:04:07;;;;;;;12.05;11.45;;;;;;;13.97;97.96;101141.28;5043770;28;20064;-63
2022/11/20 08:06:33;;;;;;;12.35;11.75;;;;;;;13.97;97.90;101140.47;5043666;28;20053;-63
2022/11/20 08:09:00;;;;;;;13.10;12.50;;;;;;;13.96;97.97;101142.44;5042549;28;20112;-63
2022/11/20 08:14:12;;;;;;;13.63;12.95;;;;;;;13.89;98.15;101135.47;5046469;28;20049;-64
2022/11/20 08:16:41;;;;;;;13.80;13.10;;;;;;;13.96;97.83;101144.41;5034111;28;20463;-64
2022/11/20 08:19:08;;;;;;;14.23;13.52;;;;;;;13.97;98.27;101154.50;5033096;28;20054;-64
2022/11/20 08:21:34;;;;;;;14.48;13.70;;;;;;;13.97;98.05;101149.72;5041504;28;20419;-63
2022/11/20 08:24:05;;;;;;;14.07;13.35;;;;;;;13.97;97.98;101148.88;5041242;28;20142;-64
2022/11/20 08:26:31;;;;;;;13.48;12.77;;;;;;;14.04;98.38;101160.63;5024283;28;20049;-64
2022/11/20 08:28:58;;;;;;;13.43;12.73;;;;;;;14.06;98.39;101166.81;5046413;28;20048;-64
2022/11/20 08:31:27;;;;;;;13.48;12.68;;;;;;;14.10;98.12;101161.47;5032430;28;20065;-64
2022/11/20 08:33:54;;;;;;;13.80;13.02;;;;;;;14.08;98.17;101166.50;5037205;28;20041;-64
2022/11/20 08:36:22;;;;;;;13.48;12.68;;;;;;;14.15;98.25;101172.66;5040670;28;20040;-64
2022/11/20 08:38:54;;;;;;;13.38;12.68;;;;;;;14.14;97.96;101171.81;5050323;28;20411;-64
2022/11/20 08:41:25;;;;;;;12.48;11.88;;;;;;;14.14;98.33;101176.59;5035813;28;20420;-64
2022/11/20 08:43:57;;;;;;;12.90;12.20;;;;;;;14.20;98.17;101170.66;5032631;28;20051;-64
2022/11/20 08:46:25;;;;;;;12.55;11.95;;;;;;;14.18;98.36;101166.44;5035985;28;20040;-63
2022/11/20 08:48:52;;;;;;;13.18;12.48;;;;;;;14.27;98.19;101178.78;5032655;28;20053;-64
2022/11/20 08:51:19;;;;;;;16.77;15.93;;;;;;;14.30;98.60;101185.78;5031770;28;20056;-64
2022/11/20 08:53:48;;;;;;;12.90;12.20;;;;;;;14.28;98.32;101185.22;5045725;28;20443;-64
2022/11/20 08:56:16;;;;;;;13.30;12.50;;;;;;;14.33;98.40;101191.66;5043507;28;20045;-64
2022/11/20 08:58:43;;;;;;;14.00;13.20;;;;;;;14.36;98.42;101193.91;5039272;28;20049;-64
2022/11/20 09:01:30;;;;;;;13.43;12.63;;;;;;;14.37;98.46;101204.00;5040830;28;20049;-64
2022/11/20 09:03:57;;;;;;;13.40;12.70;;;;;;;14.36;98.37;101202.31;5032517;28;20419;-65
2022/11/20 09:06:24;;;;;;;13.63;12.82;;;;;;;14.43;98.66;101202.00;5032795;28;20049;-64
2022/11/20 09:08:54;;;;;;;13.50;12.60;;;;;;;14.49;98.20;101202.78;5031855;28;20056;-64
2022/11/20 09:11:21;;;;;;;13.80;13.00;;;;;;;14.50;98.41;101208.16;5042255;28;20044;-64
2022/11/20 09:13:48;;;;;;;14.18;13.30;;;;;;;14.54;98.48;101209.25;5041376;28;20045;-63
2022/11/20 09:16:15;;;;;;;15.07;14.18;;;;;;;14.60;98.45;101207.25;5041416;28;20447;-64
2022/11/20 09:18:42;;;;;;;15.07;14.02;;;;;;;14.68;98.63;101209.44;5039121;28;20056;-64
2022/11/20 09:21:12;;;;;;;15.32;14.32;;;;;;;14.77;98.28;101204.88;5034806;28;20400;-64
2022/11/20 09:23:39;;;;;;;14.88;13.85;;;;;;;14.80;98.72;101193.06;5036631;28;20037;-64
2022/11/20 09:26:09;;;;;;;15.73;14.60;;;;;;;14.87;98.39;101202.00;5037694;28;20057;-63
2022/11/20 09:28:38;;;;;;;20.02;18.63;;;;;;;14.97;98.46;101203.03;5039506;28;20049;-64
2022/11/20 09:31:15;;;;;;;16.45;15.07;;;;;;;15.01;98.29;101202.16;5034131;28;20444;-63
2022/11/20 09:33:42;;;;;;;16.55;15.35;;;;;;;15.03;98.64;101204.66;5071807;28;20073;-64
2022/11/20 09:36:09;;;;;;;19.48;17.67;;;;;;;15.16;98.79;101216.06;5037330;28;20507;-62
2022/11/20 09:38:37;;;;;;;17.92;16.40;;;;;;;15.22;98.90;101208.44;5050036;28;20044;-64
2022/11/20 09:41:06;;;;;;;20.05;17.85;;;;;;;15.22;98.71;101200.00;5040116;28;20409;-63
2022/11/20 09:44:03;;;;;;;29.38;20.92;;;;;;;15.26;98.46;101217.13;5040652;28;20057;-64
2022/11/20 09:46:45;;;;;;;41.17;26.92;;;;;;;15.34;98.74;101208.84;5030675;28;20078;-64
2022/11/20 09:49:27;;;;;;;29.50;22.27;;;;;;;15.44;98.74;101215.53;5043199;28;20049;-65
2022/11/20 09:52:29;;;;;;;28.23;21.65;;;;;;;15.45;98.83;101218.03;5040296;28;20103;-63
2022/11/20 09:54:56;;;;;;;23.23;19.70;;;;;;;15.51;99.04;101221.66;5031636;28;20044;-65
2022/11/20 09:57:32;;;;;;;19.63;17.77;;;;;;;15.53;99.05;101219.38;5034445;28;20136;-65
2022/11/20 10:00:05;;;;;;;15.55;14.35;;;;;;;15.54;98.78;101215.44;5040743;28;20045;-65
2022/11/20 10:02:38;;;;;;;13.23;12.43;;;;;;;15.57;98.67;101214.84;5037188;28;20052;-65
2022/11/20 10:05:37;;;;;;;11.70;11.07;;;;;;;15.60;99.08;101222.69;5038423;28;20046;-64
2022/11/20 10:08:23;;;;;;;12.02;11.35;;;;;;;15.60;98.93;101225.50;5043404;28;20056;-65
2022/11/20 10:11:26;;;;;;;12.55;11.65;;;;;;;15.69;99.15;101234.16;5043131;28;20103;-64
2022/11/20 10:14:06;;;;;;;13.15;12.25;;;;;;;15.65;98.90;101231.06;5034615;28;20037;-64
2022/11/20 10:16:46;;;;;;;15.10;13.98;;;;;;;15.75;99.44;101241.41;5047580;28;20064;-64
2022/11/20 10:19:46;;;;;;;15.43;14.23;;;;;;;15.71;99.03;101238.34;5033212;28;20362;-63
2022/11/20 10:22:22;;;;;;;;;;;;;;;15.52;99.59;101243.03;5040122;28;20049;-64
2022/11/20 10:25:11;;;;;;;13.55;12.45;;;;;;;15.68;99.50;101227.69;5039013;28;19928;-64
2022/11/20 10:28:15;;;;;;;15.73;14.32;;;;;;;15.76;99.72;101227.06;5046397;28;20044;-64
2022/11/20 10:30:45;;;;;;;13.80;12.85;;;;;;;15.79;99.76;101217.97;5046020;28;20132;-64
2022/11/20 10:33:23;;;;;;;15.73;14.55;;;;;;;15.78;99.54;101207.84;5043471;28;20051;-63
2022/11/20 10:35:55;;;;;;;12.98;12.10;;;;;;;15.88;99.67;101224.63;5041925;28;20049;-64
2022/11/20 10:38:28;;;;;;;13.88;12.77;;;;;;;15.91;99.40;101228.00;5033414;28;20049;-64
2022/11/20 10:41:24;;;;;;;20.30;19.00;;;;;;;15.85;99.60;101205.50;5045532;28;20339;-64
2022/11/20 10:43:48;;;;;;;13.48;12.50;;;;;;;15.91;99.66;101217.56;5042391;28;20038;-64
2022/11/20 10:46:18;;;;;;;13.27;11.97;;;;;;;15.90;99.28;101217.84;5036241;28;20061;-64
2022/11/20 10:48:46;;;;;;;11.80;11.10;;;;;;;15.92;99.94;101212.78;5028156;28;20605;-65
2022/11/20 10:51:37;;;;;;;11.32;10.73;;;;;;;15.99;99.58;101232.97;5038296;28;20709;-64
2022/11/20 10:54:03;;;;;;;11.85;11.05;;;;;;;16.06;99.80;101239.06;5040907;28;20360;-64
2022/11/20 10:56:46;;;;;;;13.25;12.05;;;;;;;16.01;99.20;101220.25;5034300;28;20045;-64
2022/11/20 10:59:36;;;;;;;13.32;12.32;;;;;;;15.92;99.37;101204.31;5040875;28;20463;-64
2022/11/20 11:02:24;;;;;;;13.23;12.30;;;;;;;15.99;99.54;101216.88;5032546;28;20053;-63
2022/11/20 11:04:54;;;;;;;17.60;16.10;;;;;;;16.06;99.46;101222.16;5044775;28;20041;-64
2022/11/20 11:07:38;;;;;;;14.20;12.75;;;;;;;16.05;99.23;101220.50;5041505;28;20515;-64
2022/11/20 11:10:37;;;;;;;12.38;11.48;;;;;;;15.96;99.29;101222.28;5034685;28;20057;-63
2022/11/20 11:13:04;;;;;;;12.02;11.30;;;;;;;16.05;99.67;101217.69;5049189;28;20060;-63
2022/11/20 11:15:39;;;;;;;12.98;12.00;;;;;;;16.08;99.45;101214.25;5035552;28;20049;-64
2022/11/20 11:18:11;;;;;;;12.95;12.02;;;;;;;16.09;99.62;101216.75;5042251;28;20041;-64
2022/11/20 11:20:38;;;;;;;13.65;12.75;;;;;;;16.11;99.58;101208.03;5044685;28;20053;-64
2022/11/20 11:23:04;;;;;;;13.25;12.35;;;;;;;16.17;99.86;101218.09;5043099;28;20049;-64
2022/11/20 11:25:34;;;;;;;17.77;16.75;;;;;;;16.19;99.65;101209.31;5034202;28;20052;-64
2022/11/20 11:28:18;;;;;;;12.25;11.52;;;;;;;16.19;99.68;101204.53;5034766;28;20045;-65
2022/11/20 11:30:46;;;;;;;11.43;10.73;;;;;;;16.25;99.84;101202.47;5044272;28;20056;-65
2022/11/20 11:33:29;;;;;;;12.57;11.88;;;;;;;16.18;99.38;101196.38;5045967;28;20052;-64
2022/11/20 11:36:01;;;;;;;14.48;13.45;;;;;;;16.19;99.44;101187.63;5038436;28;20056;-64